createdAt,value
2023-02-08T00:00:34.598Z,103571.91
2023-02-08T00:03:01.231Z,103567.41
2023-02-08T00:05:27.587Z,103566.41
2023-02-08T00:07:53.994Z,103569.09
2023-02-08T00:10:20.312Z,103565.53
2023-02-08T00:12:46.661Z,103565.66
2023-02-08T00:15:13.413Z,103562.09
2023-02-08T00:17:39.785Z,103555.84
2023-02-08T00:20:06.793Z,103564.50
2023-02-08T00:22:33.181Z,103563.78
2023-02-08T00:24:59.556Z,103561.00
2023-02-08T00:27:25.984Z,103556.56
2023-02-08T00:29:52.368Z,103558.25
2023-02-08T00:32:19.265Z,103551.16
2023-02-08T00:34:45.604Z,103547.59
2023-02-08T00:37:11.930Z,103546.56
2023-02-08T00:39:38.329Z,103540.28
2023-02-08T00:42:04.781Z,103544.59
2023-02-08T00:44:32.202Z,103534.91
2023-02-08T00:46:58.545Z,103530.69
2023-02-08T00:49:24.950Z,103534.28
2023-02-08T00:51:51.310Z,103533.25
2023-02-08T00:54:19.576Z,103527.19
2023-02-08T00:56:46.561Z,103524.59
2023-02-08T00:59:13.134Z,103524.47
2023-02-08T01:01:40.103Z,103518.56
2023-02-08T01:04:06.762Z,103523.13
2023-02-08T01:06:33.602Z,103522.34
2023-02-08T01:08:59.954Z,103528.25
2023-02-08T01:11:26.828Z,103519.50
2023-02-08T01:13:55.685Z,103516.75
2023-02-08T01:16:24.561Z,103526.44
2023-02-08T01:18:52.922Z,103521.91
2023-02-08T01:21:22.945Z,103521.03
2023-02-08T01:23:50.151Z,103520.41
2023-02-08T01:26:17.851Z,103524.66
2023-02-08T01:28:45.160Z,103521.16
2023-02-08T01:31:17.222Z,103525.50
2023-02-08T01:33:43.830Z,103517.59
2023-02-08T01:36:11.473Z,103520.16
2023-02-08T01:38:38.608Z,103513.66
2023-02-08T01:41:07.066Z,103518.09
2023-02-08T01:43:54.792Z,103515.44
2023-02-08T01:46:21.250Z,103511.09
2023-02-08T01:48:48.058Z,103513.66
2023-02-08T01:51:21.659Z,103511.88
2023-02-08T01:53:52.996Z,103519.69
2023-02-08T01:56:31.984Z,103504.00
2023-02-08T01:59:01.825Z,103503.84
2023-02-08T02:01:30.741Z,103504.66
2023-02-08T02:04:00.533Z,103496.03
2023-02-08T02:06:34.486Z,103498.59
2023-02-08T02:09:23.605Z,103499.47
2023-02-08T02:11:51.691Z,103508.19
2023-02-08T02:14:18.537Z,103509.84
2023-02-08T02:16:46.010Z,103507.19
2023-02-08T02:19:30.951Z,103502.78
2023-02-08T02:22:19.299Z,103512.25
2023-02-08T02:25:23.000Z,103500.97
2023-02-08T02:28:09.663Z,103496.25
2023-02-08T02:31:02.596Z,103502.44
2023-02-08T02:33:37.915Z,103500.59
2023-02-08T02:36:25.691Z,103500.50
2023-02-08T02:39:33.941Z,103492.72
2023-02-08T02:42:53.257Z,103491.81
2023-02-08T02:45:44.609Z,103484.81
2023-02-08T02:48:37.581Z,103481.94
2023-02-08T02:51:14.170Z,103483.47
2023-02-08T02:54:02.828Z,103483.66
2023-02-08T02:56:39.227Z,103491.38
2023-02-08T02:59:09.961Z,103487.66
2023-02-08T03:01:36.910Z,103490.28
2023-02-08T03:04:14.913Z,103484.81
2023-02-08T03:06:50.070Z,103488.28
2023-02-08T03:09:31.633Z,103487.59
2023-02-08T03:12:32.151Z,103491.94
2023-02-08T03:15:19.753Z,103484.19
2023-02-08T03:18:25.694Z,103484.16
2023-02-08T03:21:10.472Z,103484.88
2023-02-08T03:24:02.424Z,103481.38
2023-02-08T03:26:35.038Z,103488.47
2023-02-08T03:29:11.421Z,103490.91
2023-02-08T03:31:49.694Z,103492.03
2023-02-08T03:34:33.814Z,103493.56
2023-02-08T03:37:06.187Z,103497.81
2023-02-08T03:39:35.999Z,103494.25
2023-02-08T03:42:09.872Z,103499.59
2023-02-08T03:44:40.895Z,103496.88
2023-02-08T03:47:16.087Z,103502.09
2023-02-08T03:49:45.416Z,103494.09
2023-02-08T03:52:11.870Z,103490.59
2023-02-08T03:54:47.606Z,103500.19
2023-02-08T03:57:22.371Z,103496.72
2023-02-08T03:59:56.503Z,103494.03
2023-02-08T04:02:27.409Z,103492.72
2023-02-08T04:04:54.641Z,103491.13
2023-02-08T04:07:21.131Z,103491.84
2023-02-08T04:09:47.557Z,103493.63
2023-02-08T04:12:14.069Z,103497.06
2023-02-08T04:14:40.434Z,103500.63
2023-02-08T04:17:06.891Z,103501.63
2023-02-08T04:19:33.329Z,103500.91
2023-02-08T04:21:59.705Z,103497.59
2023-02-08T04:24:26.041Z,103507.19
2023-02-08T04:26:52.593Z,103505.56
2023-02-08T04:29:19.122Z,103497.59
2023-02-08T04:31:45.444Z,103494.00
2023-02-08T04:34:11.825Z,103496.63
2023-02-08T04:36:38.222Z,103495.81
2023-02-08T04:39:04.689Z,103505.34
2023-02-08T04:41:31.053Z,103502.78
2023-02-08T04:43:57.395Z,103502.03
2023-02-08T04:46:23.937Z,103508.06
2023-02-08T04:48:50.289Z,103508.06
2023-02-08T04:51:16.742Z,103509.06
2023-02-08T04:53:43.082Z,103510.47
2023-02-08T04:56:09.459Z,103505.28
2023-02-08T04:58:36.441Z,103511.13
2023-02-08T05:01:10.693Z,103507.75
2023-02-08T05:03:37.403Z,103506.84
2023-02-08T05:06:03.828Z,103507.91
2023-02-08T05:08:30.518Z,103507.19
2023-02-08T05:10:56.876Z,103507.25
2023-02-08T05:13:23.270Z,103510.66
2023-02-08T05:15:49.665Z,103496.63
2023-02-08T05:18:15.991Z,103503.75
2023-02-08T05:20:42.728Z,103499.38
2023-02-08T05:23:09.226Z,103504.50
2023-02-08T05:25:35.655Z,103501.88
2023-02-08T05:28:02.025Z,103501.75
2023-02-08T05:30:28.400Z,103508.69
2023-02-08T05:32:54.722Z,103514.59
2023-02-08T05:35:21.059Z,103518.81
2023-02-08T05:37:47.385Z,103515.22
2023-02-08T05:40:13.772Z,103519.78
2023-02-08T05:42:42.256Z,103510.97
2023-02-08T05:45:08.869Z,103516.16
2023-02-08T05:47:36.637Z,103517.78
2023-02-08T05:50:03.060Z,103507.28
2023-02-08T05:52:29.419Z,103514.09
2023-02-08T05:54:55.861Z,103518.56
2023-02-08T05:57:22.224Z,103527.97
2023-02-08T05:59:48.831Z,103532.56
2023-02-08T06:02:15.264Z,103521.41
2023-02-08T06:04:41.660Z,103531.00
2023-02-08T06:07:08.011Z,103525.06
2023-02-08T06:09:34.692Z,103526.81
2023-02-08T06:12:01.013Z,103520.94
2023-02-08T06:14:27.347Z,103529.34
2023-02-08T06:16:53.675Z,103519.22
2023-02-08T06:19:20.060Z,103530.53
2023-02-08T06:21:46.620Z,103521.91
2023-02-08T06:24:13.591Z,103519.16
2023-02-08T06:26:39.996Z,103507.97
2023-02-08T06:29:06.322Z,103511.69
2023-02-08T06:31:32.683Z,103516.03
2023-02-08T06:33:59.134Z,103515.13
2023-02-08T06:36:25.542Z,103513.28
2023-02-08T06:38:51.861Z,103501.84
2023-02-08T06:41:18.215Z,103500.03
2023-02-08T06:43:44.714Z,103502.72
2023-02-08T06:46:11.180Z,103502.66
2023-02-08T06:48:37.783Z,103498.59
2023-02-08T06:51:04.443Z,103504.50
2023-02-08T06:53:30.824Z,103497.59
2023-02-08T06:55:57.144Z,103494.03
2023-02-08T06:58:23.673Z,103500.19
2023-02-08T07:00:50.176Z,103497.50
2023-02-08T07:03:17.568Z,103495.75
2023-02-08T07:05:58.660Z,103494.72
2023-02-08T07:08:30.206Z,103493.78
2023-02-08T07:10:56.594Z,103487.66
2023-02-08T07:13:22.918Z,103489.41
2023-02-08T07:15:49.230Z,103485.94
2023-02-08T07:18:15.622Z,103490.28
2023-02-08T07:20:42.060Z,103490.28
2023-02-08T07:23:08.485Z,103492.78
2023-02-08T07:25:34.815Z,103487.81
2023-02-08T07:28:01.199Z,103489.72
2023-02-08T07:30:27.632Z,103482.03
2023-02-08T07:32:54.034Z,103475.84
2023-02-08T07:35:20.351Z,103477.75
2023-02-08T07:37:46.746Z,103478.88
2023-02-08T07:40:13.062Z,103478.22
2023-02-08T07:42:39.406Z,103478.22
2023-02-08T07:45:19.743Z,103480.16
2023-02-08T07:47:46.313Z,103482.19
2023-02-08T07:50:12.647Z,103473.84
2023-02-08T07:52:39.071Z,103482.97
2023-02-08T07:55:05.638Z,103479.66
2023-02-08T07:57:31.954Z,103474.81
2023-02-08T07:59:58.302Z,103479.19
2023-02-08T08:02:24.620Z,103478.34
2023-02-08T08:04:53.746Z,103482.91
2023-02-08T08:07:20.077Z,103475.41
2023-02-08T08:09:46.414Z,103477.50
2023-02-08T08:12:13.017Z,103476.78
2023-02-08T08:14:39.407Z,103474.34
2023-02-08T08:17:05.736Z,103473.59
2023-02-08T08:19:32.061Z,103473.69
2023-02-08T08:21:58.374Z,103480.06
2023-02-08T08:24:24.800Z,103475.13
2023-02-08T08:26:51.149Z,103479.81
2023-02-08T08:29:17.576Z,103483.56
2023-02-08T08:31:44.510Z,103475.00
2023-02-08T08:34:11.019Z,103471.84
2023-02-08T08:36:37.388Z,103473.06
2023-02-08T08:39:03.793Z,103472.38
2023-02-08T08:41:30.149Z,103468.25
2023-02-08T08:43:56.518Z,103463.22
2023-02-08T08:46:22.937Z,103464.25
2023-02-08T08:48:51.540Z,103458.38
2023-02-08T08:51:17.959Z,103455.91
2023-02-08T08:53:44.339Z,103457.13
2023-02-08T08:56:10.868Z,103455.63
2023-02-08T08:58:37.294Z,103454.22
2023-02-08T09:01:03.799Z,103450.97
2023-02-08T09:03:30.201Z,103453.88
2023-02-08T09:05:57.096Z,103469.94
2023-02-08T09:08:23.466Z,103466.63
2023-02-08T09:10:49.925Z,103464.25
2023-02-08T09:13:19.419Z,103459.09
2023-02-08T09:15:46.407Z,103461.91
2023-02-08T09:18:12.805Z,103456.88
2023-02-08T09:20:39.289Z,103450.06
2023-02-08T09:23:05.646Z,103451.13
2023-02-08T09:25:33.232Z,103452.13
2023-02-08T09:27:59.619Z,103455.84
2023-02-08T09:30:25.995Z,103460.53
2023-02-08T09:32:52.305Z,103456.41
2023-02-08T09:35:18.729Z,103451.34
2023-02-08T09:37:45.067Z,103451.63
2023-02-08T09:40:25.436Z,103456.19
2023-02-08T09:43:08.696Z,103466.06
2023-02-08T09:45:59.302Z,103468.13
2023-02-08T09:48:35.745Z,103469.13
2023-02-08T09:51:04.926Z,103472.81
2023-02-08T09:53:40.283Z,103474.66
2023-02-08T09:56:12.371Z,103469.50
2023-02-08T09:58:42.868Z,103467.88
2023-02-08T10:01:22.436Z,103468.88
2023-02-08T10:03:51.971Z,103466.34
2023-02-08T10:06:20.133Z,103472.66
2023-02-08T10:08:50.568Z,103459.53
2023-02-08T10:11:16.866Z,103458.75
2023-02-08T10:13:55.009Z,103450.88
2023-02-08T10:16:43.701Z,103448.25
2023-02-08T10:19:38.195Z,103456.22
2023-02-08T10:22:20.007Z,103460.63
2023-02-08T10:25:07.524Z,103458.88
2023-02-08T10:28:12.643Z,103462.44
2023-02-08T10:30:57.245Z,103457.19
2023-02-08T10:33:35.426Z,103450.09
2023-02-08T10:36:02.251Z,103450.09
2023-02-08T10:38:45.242Z,103443.88
2023-02-08T10:41:20.144Z,103445.63
2023-02-08T10:43:56.215Z,103442.09
2023-02-08T10:46:30.021Z,103444.75
2023-02-08T10:49:20.312Z,103440.31
2023-02-08T10:51:47.234Z,103444.72
2023-02-08T10:54:14.989Z,103445.59
2023-02-08T10:56:52.836Z,103447.31
2023-02-08T10:59:23.874Z,103445.50
2023-02-08T11:01:50.743Z,103441.03
2023-02-08T11:04:17.621Z,103430.34
2023-02-08T11:06:45.278Z,103431.16
2023-02-08T11:09:20.774Z,103431.03
2023-02-08T11:11:47.862Z,103417.69
2023-02-08T11:14:19.377Z,103411.47
2023-02-08T11:16:53.910Z,103415.81
2023-02-08T11:19:42.491Z,103407.00
2023-02-08T11:22:15.924Z,103404.25
2023-02-08T11:24:43.443Z,103399.81
2023-02-08T11:27:31.130Z,103392.72
2023-02-08T11:30:09.314Z,103392.53
2023-02-08T11:32:36.702Z,103388.94
2023-02-08T11:35:21.729Z,103390.59
2023-02-08T11:37:50.809Z,103396.66
2023-02-08T11:40:28.202Z,103384.84
2023-02-08T11:42:55.175Z,103375.75
2023-02-08T11:45:21.635Z,103371.28
2023-02-08T11:47:49.408Z,103374.59
2023-02-08T11:50:26.926Z,103375.53
2023-02-08T11:52:59.107Z,103376.50
2023-02-08T11:55:27.978Z,103374.06
2023-02-08T11:58:01.179Z,103369.44
2023-02-08T12:00:35.161Z,103364.97
2023-02-08T12:03:28.409Z,103367.63
2023-02-08T12:06:13.624Z,103354.34
2023-02-08T12:09:02.243Z,103353.34
2023-02-08T12:11:50.467Z,103345.28
2023-02-08T12:14:41.807Z,103340.75
2023-02-08T12:17:13.962Z,103339.53
2023-02-08T12:20:08.272Z,103340.25
2023-02-08T12:22:41.778Z,103341.06
2023-02-08T12:25:38.036Z,103340.84
2023-02-08T12:28:24.536Z,103330.09
2023-02-08T12:31:03.377Z,103333.56
2023-02-08T12:33:36.777Z,103321.16
2023-02-08T12:36:31.555Z,103317.38
2023-02-08T12:39:37.617Z,103319.81
2023-02-08T12:42:11.420Z,103316.16
2023-02-08T12:44:46.553Z,103321.63
2023-02-08T12:47:18.981Z,103321.78
2023-02-08T12:49:51.256Z,103312.78
2023-02-08T12:52:32.992Z,103305.63
2023-02-08T12:55:23.332Z,103300.06
2023-02-08T12:57:54.160Z,103294.63
2023-02-08T13:00:26.170Z,103288.97
2023-02-08T13:03:12.014Z,103289.88
2023-02-08T13:05:50.793Z,103295.44
2023-02-08T13:08:46.656Z,103278.34
2023-02-08T13:11:39.995Z,103280.59
2023-02-08T13:14:14.991Z,103281.72
2023-02-08T13:16:46.179Z,103272.44
2023-02-08T13:19:26.447Z,103259.75
2023-02-08T13:21:54.454Z,103261.41
2023-02-08T13:24:41.131Z,103259.25
2023-02-08T13:27:16.363Z,103260.13
2023-02-08T13:29:47.089Z,103249.59
2023-02-08T13:32:21.664Z,103246.00
2023-02-08T13:34:53.520Z,103235.38
2023-02-08T13:37:27.098Z,103232.13
2023-02-08T13:40:18.114Z,103227.16
2023-02-08T13:42:50.867Z,103211.84
2023-02-08T13:45:28.639Z,103220.97
2023-02-08T13:48:03.329Z,103206.00
2023-02-08T13:50:52.842Z,103210.47
2023-02-08T13:53:39.160Z,103203.56
2023-02-08T13:56:09.333Z,103199.19
2023-02-08T13:59:00.936Z,103204.69
2023-02-08T14:01:36.675Z,103197.53
2023-02-08T14:04:12.159Z,103196.84
2023-02-08T14:06:41.624Z,103195.09
2023-02-08T14:09:10.932Z,103185.38
2023-02-08T14:11:50.341Z,103184.44
2023-02-08T14:14:24.579Z,103186.19
2023-02-08T14:17:15.835Z,103181.72
2023-02-08T14:19:46.514Z,103181.16
2023-02-08T14:22:12.801Z,103180.25
2023-02-08T14:25:00.185Z,103169.81
2023-02-08T14:27:39.659Z,103173.56
2023-02-08T14:30:09.322Z,103175.50
2023-02-08T14:32:42.176Z,103164.94
2023-02-08T14:35:11.541Z,103163.97
2023-02-08T14:37:37.950Z,103157.88
2023-02-08T14:40:35.011Z,103161.34
2023-02-08T14:43:23.094Z,103157.97
2023-02-08T14:45:56.003Z,103146.50
2023-02-08T14:48:28.618Z,103148.31
2023-02-08T14:51:04.236Z,103137.88
2023-02-08T14:53:48.104Z,103143.94
2023-02-08T14:56:33.522Z,103136.00
2023-02-08T14:59:04.799Z,103123.53
2023-02-08T15:01:44.345Z,103128.03
2023-02-08T15:04:12.313Z,103129.75
2023-02-08T15:06:38.662Z,103128.81
2023-02-08T15:09:23.815Z,103123.56
2023-02-08T15:12:26.031Z,103112.09
2023-02-08T15:14:55.233Z,103116.50
2023-02-08T15:17:32.085Z,103113.97
2023-02-08T15:19:59.784Z,103108.56
2023-02-08T15:22:26.060Z,103107.63
2023-02-08T15:24:54.845Z,103110.25
2023-02-08T15:27:45.688Z,103100.53
2023-02-08T15:30:27.351Z,103104.13
2023-02-08T15:32:54.564Z,103108.72
2023-02-08T15:35:22.884Z,103105.41
2023-02-08T15:37:49.828Z,103102.75
2023-02-08T15:40:42.984Z,103109.78
2023-02-08T15:43:09.397Z,103114.97
2023-02-08T15:45:37.387Z,103101.66
2023-02-08T15:48:06.269Z,103102.66
2023-02-08T15:50:33.390Z,103095.72
2023-02-08T15:53:05.206Z,103098.56
2023-02-08T15:55:44.620Z,103095.22
2023-02-08T15:58:28.505Z,103085.53
2023-02-08T16:00:57.289Z,103087.31
2023-02-08T16:03:25.990Z,103083.84
2023-02-08T16:05:56.757Z,103076.75
2023-02-08T16:08:28.130Z,103072.41
2023-02-08T16:11:01.850Z,103072.53
2023-02-08T16:13:31.402Z,103069.03
2023-02-08T16:16:28.882Z,103064.63
2023-02-08T16:19:00.792Z,103068.34
2023-02-08T16:21:29.264Z,103060.53
2023-02-08T16:24:04.924Z,103061.50
2023-02-08T16:26:42.644Z,103058.91
2023-02-08T16:29:27.138Z,103060.06
2023-02-08T16:32:11.926Z,103058.59
2023-02-08T16:34:40.184Z,103052.38
2023-02-08T16:37:23.048Z,103058.66
2023-02-08T16:40:54.198Z,103055.25
2023-02-08T16:43:32.938Z,103055.44
2023-02-08T16:46:11.656Z,103051.13
2023-02-08T16:48:40.568Z,103049.47
2023-02-08T16:51:28.563Z,103048.72
2023-02-08T16:54:00.446Z,103042.59
2023-02-08T16:56:26.956Z,103046.22
2023-02-08T16:58:53.387Z,103046.28
2023-02-08T17:01:22.760Z,103035.72
2023-02-08T17:03:50.124Z,103036.69
2023-02-08T17:06:29.533Z,103035.88
2023-02-08T17:08:57.249Z,103031.50
2023-02-08T17:11:23.589Z,103031.59
2023-02-08T17:13:51.983Z,103029.88
2023-02-08T17:16:21.798Z,103035.25
2023-02-08T17:18:49.302Z,103034.38
2023-02-08T17:21:16.605Z,103022.00
2023-02-08T17:23:43.731Z,103023.81
2023-02-08T17:26:28.887Z,103021.22
2023-02-08T17:28:56.769Z,103022.97
2023-02-08T17:31:23.569Z,103026.53
2023-02-08T17:33:50.161Z,103022.97
2023-02-08T17:36:17.337Z,103020.34
2023-02-08T17:38:46.277Z,103011.53
2023-02-08T17:41:15.979Z,103012.41
2023-02-08T17:43:42.471Z,103009.75
2023-02-08T17:46:16.672Z,103008.88
2023-02-08T17:48:43.543Z,103002.75
2023-02-08T17:51:16.346Z,103001.84
2023-02-08T17:53:44.033Z,102997.44
2023-02-08T17:56:14.787Z,103003.59
2023-02-08T17:58:41.597Z,103004.50
2023-02-08T18:01:10.170Z,103004.50
2023-02-08T18:03:36.830Z,102991.25
2023-02-08T18:06:05.864Z,102987.75
2023-02-08T18:08:32.218Z,102992.13
2023-02-08T18:11:03.957Z,102998.28
2023-02-08T18:13:30.492Z,102985.94
2023-02-08T18:15:56.840Z,102992.94
2023-02-08T18:18:23.180Z,102998.16
2023-02-08T18:20:52.110Z,102994.63
2023-02-08T18:23:18.435Z,102990.22
2023-02-08T18:25:45.423Z,102998.09
2023-02-08T18:28:15.035Z,102991.94
2023-02-08T18:30:42.376Z,102988.38
2023-02-08T18:33:10.565Z,102977.81
2023-02-08T18:35:37.755Z,102973.38
2023-02-08T18:38:04.263Z,102983.91
2023-02-08T18:40:32.188Z,102974.22
2023-02-08T18:42:58.684Z,102979.47
2023-02-08T18:45:25.042Z,102974.19
2023-02-08T18:47:51.371Z,102980.34
2023-02-08T18:50:17.827Z,102976.00
2023-02-08T18:52:44.160Z,102976.00
2023-02-08T18:55:10.503Z,102981.25
2023-02-08T18:57:38.731Z,102981.25
2023-02-08T19:00:05.632Z,102973.34
2023-02-08T19:02:31.987Z,102973.25
2023-02-08T19:04:58.308Z,102974.16
2023-02-08T19:07:24.640Z,102972.34
2023-02-08T19:09:51.046Z,102976.72
2023-02-08T19:12:18.808Z,102969.69
2023-02-08T19:14:48.583Z,102972.31
2023-02-08T19:17:15.074Z,102972.31
2023-02-08T19:19:41.853Z,102967.97
2023-02-08T19:22:08.205Z,102975.03
2023-02-08T19:24:34.547Z,102976.81
2023-02-08T19:27:01.001Z,102970.63
2023-02-08T19:29:27.356Z,102968.00
2023-02-08T19:31:54.561Z,102970.66
2023-02-08T19:34:21.861Z,102969.81
2023-02-08T19:36:53.968Z,102975.97
2023-02-08T19:39:24.756Z,102972.50
2023-02-08T19:41:52.724Z,102962.00
2023-02-08T19:44:20.548Z,102963.75
2023-02-08T19:46:54.703Z,102968.16
2023-02-08T19:49:22.448Z,102962.88
2023-02-08T19:51:48.794Z,102957.53
2023-02-08T19:54:17.645Z,102963.72
2023-02-08T19:56:44.959Z,102959.31
2023-02-08T19:59:33.139Z,102969.81
2023-02-08T20:02:01.606Z,102972.38
2023-02-08T20:04:28.056Z,102971.47
2023-02-08T20:06:54.567Z,102968.81
2023-02-08T20:09:21.816Z,102974.97
2023-02-08T20:11:56.956Z,102968.84
2023-02-08T20:14:30.250Z,102978.50
2023-02-08T20:16:57.597Z,102976.78
2023-02-08T20:19:25.069Z,102979.41
2023-02-08T20:21:51.768Z,102983.78
2023-02-08T20:24:18.388Z,102981.13
2023-02-08T20:26:47.068Z,102983.78
2023-02-08T20:29:14.713Z,102988.09
2023-02-08T20:31:43.110Z,102989.81
2023-02-08T20:34:12.461Z,102994.19
2023-02-08T20:36:49.714Z,102978.41
2023-02-08T20:39:19.585Z,102984.50
2023-02-08T20:41:47.320Z,102987.94
2023-02-08T20:44:16.755Z,102989.63
2023-02-08T20:46:43.390Z,102977.25
2023-02-08T20:49:12.633Z,102981.53
2023-02-08T20:51:39.112Z,102980.53
2023-02-08T20:54:05.525Z,102985.78
2023-02-08T20:56:34.917Z,102983.06
2023-02-08T20:59:04.428Z,102994.44
2023-02-08T21:01:31.003Z,102990.88
2023-02-08T21:03:58.747Z,102993.41
2023-02-08T21:06:31.411Z,102995.88
2023-02-08T21:09:00.812Z,102992.38
2023-02-08T21:11:30.593Z,102992.25
2023-02-08T21:13:57.449Z,102994.00
2023-02-08T21:16:24.481Z,103000.16
2023-02-08T21:18:52.281Z,102997.47
2023-02-08T21:21:19.768Z,102994.75
2023-02-08T21:23:46.938Z,102998.22
2023-02-08T21:26:16.712Z,103001.63
2023-02-08T21:28:44.058Z,102998.97
2023-02-08T21:31:19.419Z,102994.44
2023-02-08T21:33:45.968Z,102995.19
2023-02-08T21:36:17.828Z,102999.63
2023-02-08T21:38:44.945Z,102993.34
2023-02-08T21:41:15.573Z,103001.19
2023-02-08T21:43:42.138Z,102991.66
2023-02-08T21:46:09.288Z,102992.34
2023-02-08T21:48:56.220Z,102986.28
2023-02-08T21:51:43.020Z,102982.75
2023-02-08T21:54:30.679Z,102977.28
2023-02-08T21:57:01.912Z,102972.94
2023-02-08T21:59:29.051Z,102975.53
2023-02-08T22:01:56.395Z,102969.41
2023-02-08T22:04:22.831Z,102983.34
2023-02-08T22:06:49.285Z,102969.28
2023-02-08T22:09:17.154Z,102977.09
2023-02-08T22:11:43.876Z,102973.59
2023-02-08T22:14:11.776Z,102973.59
2023-02-08T22:16:38.498Z,102967.41
2023-02-08T22:19:05.971Z,102967.44
2023-02-08T22:21:33.102Z,102963.06
2023-02-08T22:24:00.147Z,102964.69
2023-02-08T22:26:26.778Z,102960.41
2023-02-08T22:28:53.606Z,102963.84
2023-02-08T22:31:20.667Z,102956.81
2023-02-08T22:33:47.193Z,102954.25
2023-02-08T22:36:13.606Z,102957.00
2023-02-08T22:38:39.981Z,102958.88
2023-02-08T22:41:14.176Z,102967.75
2023-02-08T22:43:40.515Z,102973.00
2023-02-08T22:46:07.561Z,102969.78
2023-02-08T22:48:34.473Z,102970.81
2023-02-08T22:51:12.773Z,102966.47
2023-02-08T22:53:39.233Z,102965.56
2023-02-08T22:56:06.124Z,102961.16
2023-02-08T22:58:32.570Z,102955.00
2023-02-08T23:00:58.933Z,102958.47
2023-02-08T23:03:25.745Z,102960.94
2023-02-08T23:05:52.758Z,102957.53
2023-02-08T23:08:23.325Z,102948.75
2023-02-08T23:10:49.929Z,102956.63
2023-02-08T23:13:16.484Z,102957.53
2023-02-08T23:15:44.735Z,102958.75
2023-02-08T23:18:11.422Z,102952.63
2023-02-08T23:20:40.624Z,102956.22
2023-02-08T23:23:08.102Z,102943.16
2023-02-08T23:25:34.890Z,102941.50
2023-02-08T23:28:01.318Z,102946.06
2023-02-08T23:30:27.748Z,102946.94
2023-02-08T23:32:54.249Z,102935.41
2023-02-08T23:35:20.668Z,102932.75
2023-02-08T23:37:47.244Z,102926.66
2023-02-08T23:40:14.055Z,102924.81
2023-02-08T23:42:40.459Z,102915.25
2023-02-08T23:45:07.701Z,102916.13
2023-02-08T23:47:34.510Z,102905.59
2023-02-08T23:50:00.935Z,102919.63
2023-02-08T23:52:27.335Z,102914.38
2023-02-08T23:54:53.671Z,102925.84
2023-02-08T23:57:20.066Z,102926.69
2023-02-08T23:59:46.503Z,102910.88
